createdAt,value
2022-12-03T00:00:12.526Z,95.90
2022-12-03T00:02:40.945Z,95.90
2022-12-03T00:05:08.670Z,95.80
2022-12-03T00:07:36.175Z,95.80
2022-12-03T00:10:05.125Z,95.90
2022-12-03T00:12:32.201Z,95.90
2022-12-03T00:14:59.344Z,95.90
2022-12-03T00:17:26.465Z,95.90
2022-12-03T00:19:53.655Z,95.90
2022-12-03T00:22:20.926Z,95.90
2022-12-03T00:24:48.085Z,95.90
2022-12-03T00:27:15.269Z,95.90
2022-12-03T00:29:42.502Z,95.90
2022-12-03T00:32:10.130Z,95.90
2022-12-03T00:34:37.356Z,95.70
2022-12-03T00:37:04.630Z,95.80
2022-12-03T00:39:31.762Z,95.80
2022-12-03T00:41:59.745Z,95.80
2022-12-03T00:44:27.355Z,95.80
2022-12-03T00:46:54.710Z,95.80
2022-12-03T00:49:22.003Z,95.70
2022-12-03T00:51:49.494Z,95.80
2022-12-03T00:54:16.921Z,95.70
2022-12-03T00:56:44.113Z,95.70
2022-12-03T00:59:11.997Z,95.50
2022-12-03T01:01:39.266Z,95.50
2022-12-03T01:04:06.559Z,95.50
2022-12-03T01:06:33.653Z,95.50
2022-12-03T01:09:00.848Z,95.40
2022-12-03T01:11:41.427Z,95.50
2022-12-03T01:14:13.509Z,95.50
2022-12-03T01:16:41.527Z,95.50
2022-12-03T01:19:11.290Z,95.50
2022-12-03T01:21:38.627Z,95.50
2022-12-03T01:24:06.055Z,95.40
2022-12-03T01:26:33.242Z,95.50
2022-12-03T01:29:01.634Z,95.50
2022-12-03T01:31:47.522Z,95.30
2022-12-03T01:34:14.777Z,95.40
2022-12-03T01:36:42.279Z,95.40
2022-12-03T01:39:10.860Z,95.40
2022-12-03T01:41:40.275Z,95.40
2022-12-03T01:44:17.270Z,95.40
2022-12-03T01:46:51.876Z,95.40
2022-12-03T01:49:22.605Z,95.50
2022-12-03T01:51:51.616Z,95.40
2022-12-03T01:54:23.774Z,95.40
2022-12-03T01:56:51.434Z,95.40
2022-12-03T01:59:21.776Z,95.40
2022-12-03T02:01:49.200Z,95.50
2022-12-03T02:04:19.776Z,95.40
2022-12-03T02:06:46.962Z,95.40
2022-12-03T02:09:14.238Z,95.50
2022-12-03T02:11:47.355Z,95.40
2022-12-03T02:14:18.517Z,95.30
2022-12-03T02:16:46.561Z,95.40
2022-12-03T02:19:25.590Z,95.40
2022-12-03T02:22:21.732Z,95.40
2022-12-03T02:25:13.348Z,95.40
2022-12-03T02:27:41.701Z,95.40
2022-12-03T02:30:10.583Z,95.30
2022-12-03T02:32:38.300Z,95.40
2022-12-03T02:35:05.980Z,95.50
2022-12-03T02:37:36.508Z,95.30
2022-12-03T02:40:11.001Z,95.30
2022-12-03T02:42:39.429Z,95.30
2022-12-03T02:45:14.643Z,95.40
2022-12-03T02:47:46.495Z,95.30
2022-12-03T02:50:17.637Z,95.30
2022-12-03T02:52:46.962Z,95.30
2022-12-03T02:55:18.330Z,95.30
2022-12-03T02:57:48.629Z,95.20
2022-12-03T03:00:20.272Z,95.20
2022-12-03T03:02:47.628Z,95.20
2022-12-03T03:05:15.996Z,95.20
2022-12-03T03:07:43.374Z,95.20
2022-12-03T03:10:14.648Z,95.10
2022-12-03T03:12:42.010Z,95.10
2022-12-03T03:15:11.730Z,95.20
2022-12-03T03:17:41.180Z,95.10
2022-12-03T03:20:09.942Z,95.00
2022-12-03T03:22:40.221Z,95.10
2022-12-03T03:25:10.927Z,95.10
2022-12-03T03:27:42.217Z,95.10
2022-12-03T03:30:10.549Z,95.10
2022-12-03T03:32:42.024Z,95.10
2022-12-03T03:35:10.188Z,95.10
2022-12-03T03:37:37.937Z,95.10
2022-12-03T03:40:05.805Z,95.10
2022-12-03T03:42:33.716Z,95.10
2022-12-03T03:45:02.187Z,95.20
2022-12-03T03:47:30.357Z,95.10
2022-12-03T03:49:57.699Z,95.10
2022-12-03T03:52:25.255Z,95.10
2022-12-03T03:54:52.743Z,95.10
2022-12-03T03:57:20.471Z,95.20
2022-12-03T03:59:47.824Z,95.20
2022-12-03T04:02:20.314Z,95.20
2022-12-03T04:04:48.512Z,95.20
2022-12-03T04:07:16.340Z,95.10
2022-12-03T04:09:46.609Z,95.10
2022-12-03T04:12:32.308Z,95.10
2022-12-03T04:14:59.868Z,95.10
2022-12-03T04:17:27.189Z,95.10
2022-12-03T04:19:54.420Z,95.10
2022-12-03T04:22:40.321Z,95.10
2022-12-03T04:25:27.985Z,95.00
2022-12-03T04:28:13.741Z,94.90
2022-12-03T04:30:41.001Z,94.90
2022-12-03T04:33:27.015Z,94.90
2022-12-03T04:35:54.319Z,94.90
2022-12-03T04:38:21.512Z,94.90
2022-12-03T04:41:00.910Z,94.80
2022-12-03T04:43:28.838Z,94.80
2022-12-03T04:45:56.189Z,94.80
2022-12-03T04:48:23.770Z,94.80
2022-12-03T04:50:50.992Z,94.80
2022-12-03T04:53:18.310Z,94.70
2022-12-03T04:55:45.360Z,94.70
2022-12-03T04:58:12.712Z,94.60
2022-12-03T05:00:39.917Z,94.60
2022-12-03T05:03:07.121Z,94.60
2022-12-03T05:05:34.339Z,94.50
2022-12-03T05:08:01.703Z,94.50
2022-12-03T05:10:29.119Z,94.40
2022-12-03T05:12:56.736Z,94.40
2022-12-03T05:15:23.929Z,94.40
2022-12-03T05:17:51.290Z,94.40
2022-12-03T05:20:37.267Z,94.40
2022-12-03T05:23:04.505Z,94.30
2022-12-03T05:25:31.697Z,94.20
2022-12-03T05:27:58.944Z,94.20
2022-12-03T05:30:26.290Z,94.10
2022-12-03T05:32:53.864Z,94.10
2022-12-03T05:35:21.068Z,94.10
2022-12-03T05:37:48.321Z,94.10
2022-12-03T05:40:19.310Z,94.00
2022-12-03T05:42:56.811Z,94.00
2022-12-03T05:45:33.053Z,94.00
2022-12-03T05:48:00.523Z,94.00
2022-12-03T05:50:31.015Z,94.10
2022-12-03T05:52:58.723Z,94.00
2022-12-03T05:55:27.153Z,93.90
2022-12-03T05:57:54.563Z,93.90
2022-12-03T06:00:24.526Z,94.00
2022-12-03T06:02:52.340Z,94.00
2022-12-03T06:05:20.975Z,94.00
2022-12-03T06:07:50.782Z,94.00
2022-12-03T06:10:21.031Z,94.10
2022-12-03T06:12:48.472Z,94.10
2022-12-03T06:15:15.728Z,94.10
2022-12-03T06:17:43.231Z,94.20
2022-12-03T06:20:19.575Z,94.20
2022-12-03T06:22:47.735Z,94.20
2022-12-03T06:25:15.693Z,94.20
2022-12-03T06:27:43.250Z,94.30
2022-12-03T06:30:13.015Z,94.30
2022-12-03T06:32:40.520Z,94.30
2022-12-03T06:35:08.301Z,94.40
2022-12-03T06:37:35.589Z,94.40
2022-12-03T06:40:02.904Z,94.40
2022-12-03T06:42:30.024Z,94.50
2022-12-03T06:44:57.390Z,94.60
2022-12-03T06:47:25.996Z,94.60
2022-12-03T06:49:53.259Z,94.60
2022-12-03T06:52:20.400Z,94.70
2022-12-03T06:54:47.484Z,94.70
2022-12-03T06:57:14.709Z,94.80
2022-12-03T06:59:42.066Z,94.80
2022-12-03T07:02:10.713Z,94.90
2022-12-03T07:04:42.023Z,95.00
2022-12-03T07:07:11.902Z,94.90
2022-12-03T07:09:39.205Z,95.00
2022-12-03T07:12:06.508Z,95.10
2022-12-03T07:14:33.661Z,95.10
2022-12-03T07:17:00.817Z,95.10
2022-12-03T07:19:32.520Z,95.20
2022-12-03T07:22:00.565Z,95.30
2022-12-03T07:24:27.930Z,95.40
2022-12-03T07:26:55.454Z,95.50
2022-12-03T07:29:37.821Z,95.50
2022-12-03T07:32:17.298Z,95.60
2022-12-03T07:34:44.667Z,95.70
2022-12-03T07:37:11.805Z,95.70
2022-12-03T07:39:38.962Z,95.80
2022-12-03T07:42:06.475Z,95.80
2022-12-03T07:47:34.562Z,95.80
2022-12-03T07:50:01.710Z,96.00
2022-12-03T07:52:29.138Z,96.00
2022-12-03T07:54:56.527Z,96.00
2022-12-03T07:57:24.163Z,96.20
2022-12-03T07:59:51.373Z,96.20
2022-12-03T08:02:21.589Z,96.20
2022-12-03T08:04:49.330Z,96.30
2022-12-03T08:07:16.464Z,96.40
2022-12-03T08:09:44.004Z,96.50
2022-12-03T08:12:22.832Z,96.50
2022-12-03T08:14:50.510Z,96.60
2022-12-03T08:17:18.622Z,96.60
2022-12-03T08:19:47.763Z,96.70
2022-12-03T08:22:16.432Z,96.80
2022-12-03T08:24:44.625Z,96.90
2022-12-03T08:27:18.840Z,96.90
2022-12-03T08:29:46.903Z,97.00
2022-12-03T08:32:14.197Z,97.00
2022-12-03T08:34:43.492Z,97.10
2022-12-03T08:37:19.234Z,97.10
2022-12-03T08:39:54.544Z,97.20
2022-12-03T08:42:42.624Z,97.30
2022-12-03T08:45:40.357Z,97.20
2022-12-03T08:48:26.042Z,97.20
2022-12-03T08:50:55.877Z,97.30
2022-12-03T08:53:40.553Z,97.50
2022-12-03T08:56:28.683Z,97.50
2022-12-03T08:59:08.346Z,97.70
2022-12-03T09:01:46.310Z,97.70
2022-12-03T09:04:22.913Z,97.80
2022-12-03T09:06:52.706Z,97.60
2022-12-03T09:09:20.382Z,97.70
2022-12-03T09:11:47.690Z,97.70
2022-12-03T09:14:18.509Z,97.60
2022-12-03T09:16:46.377Z,97.60
2022-12-03T09:19:13.674Z,97.70
2022-12-03T09:21:40.816Z,97.70
2022-12-03T09:24:08.250Z,97.60
2022-12-03T09:26:35.529Z,97.80
2022-12-03T09:29:05.324Z,97.80
2022-12-03T09:31:36.968Z,97.60
2022-12-03T09:34:05.174Z,97.40
2022-12-03T09:36:32.569Z,97.20
2022-12-03T09:39:01.171Z,97.10
2022-12-03T09:41:28.982Z,97.10
2022-12-03T09:44:05.295Z,96.90
2022-12-03T09:46:35.347Z,96.80
2022-12-03T09:49:04.614Z,96.80
2022-12-03T09:51:36.569Z,96.80
2022-12-03T09:54:06.117Z,96.80
2022-12-03T09:56:38.615Z,96.60
2022-12-03T09:59:13.090Z,96.70
2022-12-03T10:01:40.604Z,96.80
2022-12-03T10:04:08.349Z,96.80
2022-12-03T10:06:38.838Z,96.80
2022-12-03T10:09:11.399Z,96.80
2022-12-03T10:11:38.943Z,96.70
2022-12-03T10:14:06.444Z,96.60
2022-12-03T10:16:41.724Z,96.60
2022-12-03T10:19:18.253Z,96.40
2022-12-03T10:21:45.422Z,96.30
2022-12-03T10:24:25.945Z,96.30
2022-12-03T10:26:56.144Z,96.30
2022-12-03T10:29:35.890Z,96.00
2022-12-03T10:32:24.714Z,96.20
2022-12-03T10:35:07.648Z,96.10
2022-12-03T10:37:35.027Z,96.00
2022-12-03T10:40:09.442Z,96.00
2022-12-03T10:42:41.258Z,95.80
2022-12-03T10:45:27.631Z,95.70
2022-12-03T10:48:14.832Z,95.60
2022-12-03T10:50:53.924Z,95.60
2022-12-03T10:53:28.490Z,95.30
2022-12-03T10:55:59.786Z,95.40
2022-12-03T10:58:43.066Z,95.30
2022-12-03T11:01:32.193Z,95.30
2022-12-03T11:04:05.629Z,95.20
2022-12-03T11:06:47.309Z,95.20
2022-12-03T11:09:22.352Z,95.10
2022-12-03T11:11:49.828Z,95.10
2022-12-03T11:14:58.553Z,95.20
2022-12-03T11:17:44.153Z,95.30
2022-12-03T11:20:25.041Z,95.10
2022-12-03T11:22:54.220Z,94.90
2022-12-03T11:25:27.455Z,95.00
2022-12-03T11:28:15.900Z,94.80
2022-12-03T11:30:49.999Z,94.90
2022-12-03T11:33:35.443Z,95.00
2022-12-03T11:36:08.264Z,94.70
2022-12-03T11:38:38.434Z,94.80
2022-12-03T11:41:10.437Z,94.90
2022-12-03T11:44:05.627Z,95.30
2022-12-03T11:46:43.573Z,94.80
2022-12-03T11:49:39.957Z,94.80
2022-12-03T11:52:33.434Z,94.70
2022-12-03T11:55:18.747Z,94.80
2022-12-03T11:57:48.456Z,94.90
2022-12-03T12:00:22.328Z,94.90
2022-12-03T12:02:51.512Z,94.90
2022-12-03T12:05:29.073Z,94.90
2022-12-03T12:08:10.766Z,94.90
2022-12-03T12:10:49.033Z,94.80
2022-12-03T12:14:00.894Z,94.90
2022-12-03T12:16:52.615Z,94.80
2022-12-03T12:19:41.420Z,95.00
2022-12-03T12:22:28.688Z,94.60
2022-12-03T12:24:58.347Z,94.70
2022-12-03T12:27:46.260Z,94.80
2022-12-03T12:30:32.265Z,94.70
2022-12-03T12:33:02.624Z,94.70
2022-12-03T12:35:32.607Z,94.60
2022-12-03T12:38:00.616Z,94.50
2022-12-03T12:40:31.351Z,94.60
2022-12-03T12:43:05.377Z,94.60
2022-12-03T12:45:41.743Z,94.50
2022-12-03T12:48:28.722Z,94.60
2022-12-03T12:51:20.550Z,94.40
2022-12-03T12:53:50.297Z,94.50
2022-12-03T12:56:31.636Z,94.60
2022-12-03T12:59:22.189Z,94.80
2022-12-03T13:01:50.380Z,94.50
2022-12-03T13:04:49.797Z,94.30
2022-12-03T13:07:17.093Z,94.40
2022-12-03T13:09:44.310Z,94.40
2022-12-03T13:12:21.440Z,94.40
2022-12-03T13:14:52.284Z,94.50
2022-12-03T13:17:26.047Z,94.50
2022-12-03T13:20:07.706Z,94.20
2022-12-03T13:22:40.079Z,94.30
2022-12-03T13:25:58.280Z,94.20
2022-12-03T13:28:21.255Z,94.10
2022-12-03T13:30:48.562Z,94.20
2022-12-03T13:33:26.212Z,94.20
2022-12-03T13:35:56.567Z,94.10
2022-12-03T13:38:25.270Z,94.10
2022-12-03T13:41:00.321Z,94.00
2022-12-03T13:46:20.755Z,94.20
2022-12-03T13:48:48.049Z,94.20
2022-12-03T13:51:26.180Z,94.30
2022-12-03T13:53:54.129Z,94.40
2022-12-03T13:56:28.987Z,94.20
2022-12-03T13:58:59.757Z,94.10
2022-12-03T14:01:28.226Z,94.10
2022-12-03T14:03:55.912Z,94.30
2022-12-03T14:06:45.240Z,94.30
2022-12-03T14:09:12.423Z,94.30
2022-12-03T14:11:59.064Z,94.30
2022-12-03T14:14:26.443Z,94.20
2022-12-03T14:16:59.493Z,94.60
2022-12-03T14:19:27.243Z,94.20
2022-12-03T14:22:00.564Z,94.20
2022-12-03T14:24:27.898Z,94.20
2022-12-03T14:26:55.105Z,94.30
2022-12-03T14:29:24.454Z,94.40
2022-12-03T14:31:51.858Z,94.40
2022-12-03T14:34:20.806Z,94.50
2022-12-03T14:37:31.934Z,94.70
2022-12-03T14:39:59.349Z,94.50
2022-12-03T14:42:26.989Z,94.60
2022-12-03T14:44:54.476Z,94.60
2022-12-03T14:47:33.183Z,94.70
2022-12-03T14:50:00.588Z,94.70
2022-12-03T14:52:28.012Z,94.80
2022-12-03T14:54:55.493Z,94.80
2022-12-03T14:57:28.659Z,94.90
2022-12-03T14:59:56.264Z,94.90
2022-12-03T15:02:28.455Z,94.90
2022-12-03T15:04:55.735Z,95.00
2022-12-03T15:07:23.170Z,95.40
2022-12-03T15:09:50.542Z,95.10
2022-12-03T15:12:18.830Z,95.20
2022-12-03T15:14:46.150Z,95.20
2022-12-03T15:17:13.413Z,95.30
2022-12-03T15:19:40.739Z,95.40
2022-12-03T15:22:07.959Z,95.40
2022-12-03T15:24:35.305Z,95.40
2022-12-03T15:27:03.798Z,95.40
2022-12-03T15:29:32.540Z,95.30
2022-12-03T15:32:03.212Z,95.40
2022-12-03T15:34:31.869Z,95.40
2022-12-03T15:36:59.134Z,95.30
2022-12-03T15:39:28.252Z,95.40
2022-12-03T15:41:55.747Z,95.40
2022-12-03T15:44:29.573Z,95.50
2022-12-03T15:46:57.571Z,95.50
2022-12-03T15:49:24.916Z,95.50
2022-12-03T15:51:53.388Z,95.60
2022-12-03T15:54:20.550Z,95.60
2022-12-03T15:56:50.492Z,95.70
2022-12-03T15:59:19.958Z,95.60
2022-12-03T16:01:47.545Z,95.60
2022-12-03T16:04:14.801Z,95.50
2022-12-03T16:06:41.872Z,95.40
2022-12-03T16:09:09.155Z,95.40
2022-12-03T16:11:36.293Z,95.30
2022-12-03T16:14:03.497Z,95.30
2022-12-03T16:16:30.807Z,95.20
2022-12-03T16:18:58.056Z,95.30
2022-12-03T16:21:27.249Z,95.20
2022-12-03T16:23:56.203Z,95.20
2022-12-03T16:26:23.456Z,95.20
2022-12-03T16:28:50.594Z,95.00
2022-12-03T16:31:19.185Z,95.10
2022-12-03T16:33:46.505Z,95.10
2022-12-03T16:36:14.469Z,95.10
2022-12-03T16:38:42.436Z,95.00
2022-12-03T16:41:10.033Z,95.00
2022-12-03T16:43:38.987Z,95.10
2022-12-03T16:46:18.779Z,95.00
2022-12-03T16:48:47.820Z,95.10
2022-12-03T16:51:17.869Z,95.10
2022-12-03T16:53:45.749Z,95.00
2022-12-03T16:56:13.679Z,95.10
2022-12-03T16:58:41.632Z,95.10
2022-12-03T17:01:09.411Z,95.20
2022-12-03T17:03:38.175Z,95.10
2022-12-03T17:06:26.269Z,95.10
2022-12-03T17:08:54.662Z,95.10
2022-12-03T17:11:21.948Z,95.10
2022-12-03T17:13:49.178Z,95.10
2022-12-03T17:16:16.629Z,95.10
2022-12-03T17:18:43.998Z,95.10
2022-12-03T17:21:11.242Z,95.10
2022-12-03T17:23:38.357Z,95.10
2022-12-03T17:26:05.759Z,95.00
2022-12-03T17:28:36.110Z,95.10
2022-12-03T17:31:03.870Z,95.10
2022-12-03T17:33:31.331Z,95.10
2022-12-03T17:35:59.551Z,95.00
2022-12-03T17:38:28.226Z,95.10
2022-12-03T17:40:55.396Z,95.20
2022-12-03T17:43:23.596Z,95.20
2022-12-03T17:45:50.707Z,95.30
2022-12-03T17:48:18.067Z,95.30
2022-12-03T17:50:45.778Z,95.30
2022-12-03T17:53:13.077Z,95.30
2022-12-03T17:55:45.069Z,95.20
2022-12-03T17:58:13.318Z,95.30
2022-12-03T18:00:40.849Z,95.30
2022-12-03T18:03:08.074Z,95.30
2022-12-03T18:05:35.299Z,95.40
2022-12-03T18:08:02.771Z,95.40
2022-12-03T18:10:31.690Z,95.40
2022-12-03T18:13:02.114Z,95.40
2022-12-03T18:15:31.616Z,95.40
2022-12-03T18:17:58.734Z,95.40
2022-12-03T18:20:26.114Z,95.40
2022-12-03T18:22:53.253Z,95.40
2022-12-03T18:25:20.489Z,95.40
2022-12-03T18:27:47.729Z,95.40
2022-12-03T18:30:15.237Z,95.50
2022-12-03T18:32:42.661Z,95.50
2022-12-03T18:35:10.047Z,95.50
2022-12-03T18:37:39.729Z,95.40
2022-12-03T18:40:13.435Z,95.50
2022-12-03T18:42:41.826Z,95.40
2022-12-03T18:45:46.185Z,95.50
2022-12-03T18:48:19.154Z,95.40
2022-12-03T18:50:47.882Z,95.40
2022-12-03T18:53:19.464Z,95.40
2022-12-03T18:55:47.747Z,95.40
2022-12-03T18:58:15.757Z,95.40
2022-12-03T19:00:43.203Z,95.40
2022-12-03T19:03:10.930Z,95.40
2022-12-03T19:05:38.396Z,95.40
2022-12-03T19:08:14.323Z,95.40
2022-12-03T19:10:43.059Z,95.40
2022-12-03T19:13:10.618Z,95.30
2022-12-03T19:15:41.536Z,95.20
2022-12-03T19:18:09.088Z,95.20
2022-12-03T19:20:41.363Z,95.10
2022-12-03T19:23:09.804Z,95.10
2022-12-03T19:25:38.254Z,95.10
2022-12-03T19:28:05.455Z,94.90
2022-12-03T19:30:35.595Z,94.90
2022-12-03T19:33:15.016Z,95.00
2022-12-03T19:35:44.983Z,94.90
2022-12-03T19:38:12.322Z,94.90
2022-12-03T19:40:39.441Z,94.90
2022-12-03T19:43:06.618Z,94.80
2022-12-03T19:45:36.363Z,94.80
2022-12-03T19:48:03.780Z,94.80
2022-12-03T19:50:32.584Z,94.90
2022-12-03T19:52:59.668Z,94.70
2022-12-03T19:55:27.112Z,94.80
2022-12-03T19:57:54.435Z,94.90
2022-12-03T20:00:21.972Z,94.90
2022-12-03T20:02:50.148Z,94.90
2022-12-03T20:05:17.655Z,94.90
2022-12-03T20:07:45.042Z,94.70
2022-12-03T20:10:14.008Z,94.80
2022-12-03T20:12:41.362Z,94.80
2022-12-03T20:15:09.583Z,94.70
2022-12-03T20:17:55.630Z,94.80
2022-12-03T20:20:23.586Z,94.80
2022-12-03T20:22:50.892Z,94.70
2022-12-03T20:25:18.155Z,94.70
2022-12-03T20:27:45.378Z,94.70
2022-12-03T20:30:12.923Z,94.60
2022-12-03T20:32:45.153Z,94.70
2022-12-03T20:35:13.080Z,94.70
2022-12-03T20:37:41.921Z,94.80
2022-12-03T20:40:09.507Z,94.60
2022-12-03T20:42:36.841Z,94.70
2022-12-03T20:45:04.595Z,94.70
2022-12-03T20:47:31.932Z,94.70
2022-12-03T20:49:59.107Z,94.60
2022-12-03T20:52:26.217Z,94.60
2022-12-03T20:54:53.409Z,94.70
2022-12-03T20:57:20.682Z,94.70
2022-12-03T20:59:48.747Z,94.70
2022-12-03T21:02:16.379Z,94.60
2022-12-03T21:04:43.688Z,94.70
2022-12-03T21:07:10.791Z,94.60
2022-12-03T21:09:38.272Z,94.60
2022-12-03T21:12:06.840Z,94.50
2022-12-03T21:14:34.020Z,94.50
2022-12-03T21:17:09.713Z,94.50
2022-12-03T21:19:37.853Z,94.50
2022-12-03T21:22:06.020Z,94.50
2022-12-03T21:24:33.837Z,94.40
2022-12-03T21:27:01.013Z,94.40
2022-12-03T21:29:28.436Z,94.40
2022-12-03T21:31:55.908Z,94.40
2022-12-03T21:34:24.218Z,94.40
2022-12-03T21:36:51.555Z,94.30
2022-12-03T21:39:19.450Z,94.30
2022-12-03T21:42:35.363Z,94.40
2022-12-03T21:45:05.244Z,94.30
2022-12-03T21:47:37.161Z,94.30
2022-12-03T21:50:09.546Z,94.30
2022-12-03T21:52:36.854Z,94.30
2022-12-03T21:55:04.525Z,94.30
2022-12-03T21:57:31.782Z,94.20
2022-12-03T21:59:59.848Z,94.20
2022-12-03T22:02:28.203Z,94.20
2022-12-03T22:04:55.557Z,94.20
2022-12-03T22:07:23.028Z,94.20
2022-12-03T22:09:50.398Z,94.20
2022-12-03T22:12:17.602Z,94.30
2022-12-03T22:14:45.550Z,94.20
2022-12-03T22:17:12.738Z,94.20
2022-12-03T22:19:40.023Z,94.10
2022-12-03T22:22:07.145Z,94.00
2022-12-03T22:24:34.316Z,94.10
2022-12-03T22:27:02.113Z,94.20
2022-12-03T22:29:29.325Z,94.10
2022-12-03T22:31:56.519Z,94.00
2022-12-03T22:34:23.814Z,94.10
2022-12-03T22:36:51.253Z,94.00
2022-12-03T22:39:18.433Z,94.00
2022-12-03T22:41:45.685Z,94.00
2022-12-03T22:44:13.120Z,94.00
2022-12-03T22:46:40.351Z,94.00
2022-12-03T22:49:07.933Z,93.90
2022-12-03T22:51:36.857Z,93.90
2022-12-03T22:54:04.572Z,93.90
2022-12-03T22:56:32.752Z,93.70
2022-12-03T22:59:00.081Z,94.10
2022-12-03T23:01:32.873Z,93.80
2022-12-03T23:04:01.042Z,93.60
2022-12-03T23:06:30.097Z,93.80
2022-12-03T23:08:58.245Z,93.70
2022-12-03T23:11:25.936Z,93.70
2022-12-03T23:13:53.497Z,93.70
2022-12-03T23:16:23.856Z,93.70
2022-12-03T23:18:52.557Z,93.80
2022-12-03T23:21:29.049Z,93.60
2022-12-03T23:24:00.756Z,93.70
2022-12-03T23:26:28.975Z,93.60
2022-12-03T23:28:56.377Z,93.60
2022-12-03T23:31:29.635Z,93.60
2022-12-03T23:33:58.935Z,93.60
2022-12-03T23:36:29.758Z,93.60
2022-12-03T23:38:57.157Z,93.60
2022-12-03T23:41:25.361Z,93.60
2022-12-03T23:43:53.183Z,93.60
2022-12-03T23:46:24.586Z,93.40
2022-12-03T23:48:52.126Z,93.20
2022-12-03T23:51:22.323Z,93.40
2022-12-03T23:53:50.479Z,93.20
2022-12-03T23:56:20.554Z,93.20
2022-12-03T23:58:48.135Z,93.20
